createdAt,value
2019-03-12T00:00:34.636Z,27.40
2019-03-12T00:03:01.187Z,26.60
2019-03-12T00:05:27.733Z,26.50
2019-03-12T00:07:54.248Z,27.90
2019-03-12T00:10:20.557Z,28.50
2019-03-12T00:12:46.898Z,28.50
2019-03-12T00:15:13.271Z,28.40
2019-03-12T00:17:59.601Z,28.40
2019-03-12T00:20:26.134Z,28.00
2019-03-12T00:22:52.512Z,26.90
2019-03-12T00:25:18.819Z,27.30
2019-03-12T00:27:45.109Z,28.20
2019-03-12T00:30:11.438Z,28.40
2019-03-12T00:32:37.843Z,28.30
2019-03-12T00:35:23.982Z,27.70
2019-03-12T00:37:50.289Z,27.20
2019-03-12T00:40:16.570Z,27.10
2019-03-12T00:42:42.876Z,27.20
2019-03-12T00:45:10.451Z,27.10
2019-03-12T00:47:36.733Z,27.40
2019-03-12T00:50:05.687Z,27.50
2019-03-12T00:52:31.947Z,27.70
2019-03-12T00:54:58.224Z,27.60
2019-03-12T00:57:24.500Z,27.80
2019-03-12T00:59:50.787Z,28.70
2019-03-12T01:02:17.069Z,28.90
2019-03-12T01:04:43.366Z,28.90
2019-03-12T01:07:20.399Z,29.00
2019-03-12T01:09:46.797Z,28.90
2019-03-12T01:12:13.199Z,28.80
2019-03-12T01:14:39.566Z,29.30
2019-03-12T01:17:05.948Z,28.80
2019-03-12T01:19:32.215Z,28.90
2019-03-12T01:21:58.541Z,29.10
2019-03-12T01:24:24.788Z,29.30
2019-03-12T01:26:51.043Z,29.10
2019-03-12T01:29:17.330Z,28.80
2019-03-12T01:31:43.593Z,29.30
2019-03-12T01:34:20.282Z,29.50
2019-03-12T01:36:46.591Z,29.80
2019-03-12T01:39:12.889Z,29.30
2019-03-12T01:41:39.164Z,28.70
2019-03-12T01:44:05.411Z,28.80
2019-03-12T01:46:32.421Z,29.10
2019-03-12T01:48:58.695Z,29.50
2019-03-12T01:51:24.966Z,29.50
2019-03-12T01:53:51.299Z,29.10
2019-03-12T01:56:17.558Z,28.60
2019-03-12T01:58:43.861Z,28.80
2019-03-12T02:01:10.275Z,29.40
2019-03-12T02:03:36.685Z,30.00
2019-03-12T02:06:03.040Z,30.10
2019-03-12T02:08:29.447Z,30.30
2019-03-12T02:10:55.829Z,30.10
2019-03-12T02:13:22.155Z,30.80
2019-03-12T02:15:48.446Z,30.50
2019-03-12T02:18:14.743Z,31.10
2019-03-12T02:20:41.040Z,30.80
2019-03-12T02:23:29.003Z,31.00
2019-03-12T02:25:55.518Z,30.50
2019-03-12T02:28:21.833Z,31.00
2019-03-12T02:30:48.169Z,31.70
2019-03-12T02:33:14.677Z,31.60
2019-03-12T02:35:41.129Z,31.50
2019-03-12T02:38:07.532Z,31.60
2019-03-12T02:40:33.889Z,30.80
2019-03-12T02:43:00.304Z,31.10
2019-03-12T02:45:26.751Z,31.20
2019-03-12T02:47:53.293Z,31.20
2019-03-12T02:50:19.687Z,31.30
2019-03-12T02:52:46.222Z,30.90
2019-03-12T02:55:13.040Z,30.70
2019-03-12T02:57:39.499Z,30.60
2019-03-12T03:00:10.559Z,30.60
2019-03-12T03:02:37.242Z,29.60
2019-03-12T03:05:04.655Z,29.20
2019-03-12T03:07:32.990Z,29.80
2019-03-12T03:09:59.441Z,29.60
2019-03-12T03:12:36.754Z,30.30
2019-03-12T03:15:15.123Z,30.00
2019-03-12T03:17:41.649Z,31.10
2019-03-12T03:20:07.953Z,31.40
2019-03-12T03:22:34.421Z,32.20
2019-03-12T03:25:00.732Z,32.90
2019-03-12T03:27:29.285Z,32.80
2019-03-12T03:29:55.313Z,31.50
2019-03-12T03:32:21.674Z,32.10
2019-03-12T03:34:48.210Z,32.80
2019-03-12T03:37:14.509Z,33.20
2019-03-12T03:39:41.075Z,34.10
2019-03-12T03:42:09.422Z,33.40
2019-03-12T03:44:35.821Z,33.40
2019-03-12T03:47:02.735Z,33.70
2019-03-12T03:49:30.208Z,32.90
2019-03-12T03:51:56.530Z,34.30
2019-03-12T03:54:22.891Z,33.80
2019-03-12T03:56:49.179Z,34.20
2019-03-12T03:59:15.486Z,34.10
2019-03-12T04:01:41.946Z,34.40
2019-03-12T04:04:08.325Z,34.20
2019-03-12T04:06:34.784Z,33.60
2019-03-12T04:09:01.422Z,32.50
2019-03-12T04:11:29.642Z,33.70
2019-03-12T04:13:55.977Z,34.40
2019-03-12T04:16:22.379Z,34.70
2019-03-12T04:18:48.748Z,34.40
2019-03-12T04:21:15.145Z,34.20
2019-03-12T04:23:41.548Z,34.90
2019-03-12T04:26:09.149Z,35.10
2019-03-12T04:28:35.485Z,35.80
2019-03-12T04:31:01.861Z,36.00
2019-03-12T04:33:58.147Z,35.50
2019-03-12T04:36:24.446Z,35.50
2019-03-12T04:38:50.741Z,36.70
2019-03-12T04:41:17.037Z,37.00
2019-03-12T04:44:03.235Z,37.50
2019-03-12T04:46:29.673Z,38.80
2019-03-12T04:48:55.991Z,39.60
2019-03-12T04:51:42.143Z,39.60
2019-03-12T04:54:08.590Z,39.10
2019-03-12T04:56:34.857Z,38.00
2019-03-12T04:59:01.281Z,38.60
2019-03-12T05:01:27.693Z,38.50
2019-03-12T05:03:54.063Z,40.50
2019-03-12T05:06:20.500Z,41.30
2019-03-12T05:08:46.872Z,38.80
2019-03-12T05:11:13.206Z,40.30
2019-03-12T05:13:39.522Z,40.30
2019-03-12T05:16:05.860Z,40.90
2019-03-12T05:18:32.306Z,41.00
2019-03-12T05:21:00.294Z,40.30
2019-03-12T05:23:26.694Z,39.90
2019-03-12T05:25:53.135Z,39.50
2019-03-12T05:28:19.553Z,40.60
2019-03-12T05:30:46.589Z,41.20
2019-03-12T05:33:14.100Z,41.80
2019-03-12T05:35:40.482Z,41.20
2019-03-12T05:38:06.788Z,40.40
2019-03-12T05:40:33.133Z,39.40
2019-03-12T05:42:59.504Z,39.40
2019-03-12T05:45:26.025Z,39.90
2019-03-12T05:48:05.243Z,39.80
2019-03-12T05:50:31.685Z,39.80
2019-03-12T05:53:07.735Z,40.80
2019-03-12T05:55:34.123Z,40.30
2019-03-12T05:58:00.438Z,40.30
2019-03-12T06:00:27.487Z,40.20
2019-03-12T06:03:07.100Z,40.70
2019-03-12T06:05:33.451Z,39.20
2019-03-12T06:07:59.875Z,38.70
2019-03-12T06:10:26.188Z,38.80
2019-03-12T06:12:52.727Z,38.20
2019-03-12T06:15:19.142Z,38.20
2019-03-12T06:17:45.633Z,38.70
2019-03-12T06:20:16.116Z,39.20
2019-03-12T06:22:42.545Z,39.10
2019-03-12T06:25:09.069Z,39.00
2019-03-12T06:27:35.458Z,38.30
2019-03-12T06:30:01.773Z,37.10
2019-03-12T06:32:30.218Z,36.10
2019-03-12T06:34:58.409Z,35.70
2019-03-12T06:37:35.801Z,35.20
2019-03-12T06:40:18.860Z,34.50
2019-03-12T06:43:15.582Z,33.40
2019-03-12T06:45:49.825Z,33.20
2019-03-12T06:48:18.152Z,33.20
2019-03-12T06:50:47.332Z,33.00
2019-03-12T06:53:15.543Z,33.60
2019-03-12T06:55:46.528Z,32.70
2019-03-12T06:58:34.749Z,32.30
2019-03-12T07:01:20.010Z,33.30
2019-03-12T07:04:05.195Z,32.30
2019-03-12T07:06:33.482Z,30.90
2019-03-12T07:09:19.985Z,29.90
2019-03-12T07:12:00.506Z,28.50
2019-03-12T07:14:28.836Z,28.20
2019-03-12T07:17:03.132Z,27.80
2019-03-12T07:22:19.341Z,25.40
2019-03-12T07:25:05.885Z,25.00
2019-03-12T07:27:34.217Z,23.50
2019-03-12T07:30:17.791Z,23.60
2019-03-12T07:32:46.199Z,23.70
2019-03-12T07:35:29.763Z,24.90
2019-03-12T07:38:14.620Z,24.70
2019-03-12T07:40:48.947Z,24.60
2019-03-12T07:43:26.454Z,24.90
2019-03-12T07:46:03.863Z,26.40
2019-03-12T07:48:44.453Z,28.40
2019-03-12T07:51:21.545Z,29.50
2019-03-12T07:54:04.983Z,28.30
2019-03-12T07:56:55.199Z,27.80
2019-03-12T07:59:32.770Z,26.80
2019-03-12T08:02:07.123Z,25.60
2019-03-12T08:04:50.342Z,24.80
2019-03-12T08:07:30.941Z,24.50
2019-03-12T08:10:01.207Z,23.50
2019-03-12T08:12:29.575Z,23.60
2019-03-12T08:15:23.191Z,23.60
2019-03-12T08:17:47.556Z,22.70
2019-03-12T08:20:50.614Z,22.40
2019-03-12T08:23:36.127Z,22.80
2019-03-12T08:26:04.317Z,22.00
2019-03-12T08:28:38.491Z,22.00
2019-03-12T08:31:09.675Z,22.40
2019-03-12T08:33:50.366Z,21.60
2019-03-12T08:36:26.109Z,20.90
2019-03-12T08:38:57.390Z,21.00
2019-03-12T08:41:28.537Z,20.70
2019-03-12T08:43:56.883Z,20.30
2019-03-12T08:46:34.424Z,20.50
2019-03-12T08:49:08.895Z,20.20
2019-03-12T08:51:40.908Z,19.70
2019-03-12T08:54:24.453Z,20.00
2019-03-12T08:56:52.756Z,19.80
2019-03-12T08:59:24.103Z,20.50
2019-03-12T09:02:10.915Z,20.00
2019-03-12T09:04:45.241Z,20.30
2019-03-12T09:07:25.498Z,20.20
2019-03-12T09:09:53.842Z,19.90
2019-03-12T09:12:22.150Z,20.00
2019-03-12T09:15:06.838Z,20.60
2019-03-12T09:17:35.257Z,19.80
2019-03-12T09:20:12.700Z,19.90
2019-03-12T09:23:00.490Z,20.50
2019-03-12T09:25:28.860Z,20.80
2019-03-12T09:28:13.767Z,20.40
2019-03-12T09:30:54.451Z,19.40
2019-03-12T09:33:39.779Z,19.90
2019-03-12T09:36:15.260Z,20.00
2019-03-12T09:38:43.511Z,20.00
2019-03-12T09:41:18.011Z,19.40
2019-03-12T09:44:12.065Z,18.90
2019-03-12T09:49:37.428Z,18.80
2019-03-12T09:52:06.466Z,18.50
2019-03-12T09:54:46.967Z,18.80
2019-03-12T09:57:15.225Z,18.30
2019-03-12T09:59:46.569Z,18.60
2019-03-12T10:02:21.072Z,18.90
2019-03-12T10:04:58.617Z,18.80
2019-03-12T10:07:29.941Z,18.90
2019-03-12T10:09:58.163Z,19.10
2019-03-12T10:12:26.830Z,18.40
2019-03-12T10:14:56.370Z,18.10
2019-03-12T10:17:27.374Z,18.10
2019-03-12T10:20:08.013Z,17.10
2019-03-12T10:22:48.106Z,17.60
2019-03-12T10:25:19.160Z,18.10
2019-03-12T10:27:56.478Z,17.20
2019-03-12T10:30:24.780Z,17.10
2019-03-12T10:33:08.061Z,17.30
2019-03-12T10:35:53.513Z,17.50
2019-03-12T10:38:58.997Z,16.50
2019-03-12T10:41:33.096Z,16.00
2019-03-12T10:44:01.351Z,16.20
2019-03-12T10:46:29.539Z,16.90
2019-03-12T10:48:56.442Z,17.60
2019-03-12T10:51:42.671Z,17.50
2019-03-12T10:54:10.040Z,17.60
2019-03-12T10:56:36.565Z,16.70
2019-03-12T10:59:22.851Z,16.40
2019-03-12T11:01:49.281Z,18.00
2019-03-12T11:04:15.765Z,16.30
2019-03-12T11:06:42.105Z,16.20
2019-03-12T11:09:08.594Z,16.50
2019-03-12T11:11:36.115Z,16.70
2019-03-12T11:14:02.436Z,16.80
2019-03-12T11:16:28.910Z,16.20
2019-03-12T11:18:55.322Z,16.50
2019-03-12T11:21:21.767Z,16.60
2019-03-12T11:23:48.068Z,16.80
2019-03-12T11:26:14.379Z,16.20
2019-03-12T11:28:40.827Z,15.70
2019-03-12T11:31:07.105Z,15.60
2019-03-12T11:33:33.538Z,16.30
2019-03-12T11:35:59.833Z,15.90
2019-03-12T11:38:26.256Z,15.60
2019-03-12T11:40:52.687Z,14.30
2019-03-12T11:43:19.213Z,15.30
2019-03-12T11:45:56.359Z,16.50
2019-03-12T11:48:22.897Z,16.90
2019-03-12T11:50:49.452Z,15.40
2019-03-12T11:53:15.859Z,15.80
2019-03-12T11:55:43.185Z,15.50
2019-03-12T11:58:09.626Z,15.50
2019-03-12T12:00:40.783Z,14.20
2019-03-12T12:03:07.232Z,14.70
2019-03-12T12:05:33.556Z,16.80
2019-03-12T12:08:00.215Z,17.10
2019-03-12T12:10:27.008Z,17.00
2019-03-12T12:12:53.349Z,16.10
2019-03-12T12:15:19.785Z,16.50
2019-03-12T12:17:49.140Z,16.40
2019-03-12T12:20:14.603Z,16.20
2019-03-12T12:22:41.041Z,18.20
2019-03-12T12:25:14.860Z,18.50
2019-03-12T12:27:41.301Z,18.80
2019-03-12T12:30:11.301Z,19.10
2019-03-12T12:32:37.834Z,18.80
2019-03-12T12:35:07.453Z,18.60
2019-03-12T12:37:35.823Z,18.30
2019-03-12T12:40:05.326Z,18.70
2019-03-12T12:42:32.044Z,18.30
2019-03-12T12:44:58.552Z,18.80
2019-03-12T12:47:24.842Z,17.90
2019-03-12T12:49:51.172Z,17.70
2019-03-12T12:52:17.616Z,17.40
2019-03-12T12:54:44.031Z,17.00
2019-03-12T12:57:10.670Z,17.40
2019-03-12T12:59:37.081Z,17.80
2019-03-12T13:02:23.368Z,16.90
2019-03-12T13:04:49.985Z,17.10
2019-03-12T13:07:16.303Z,17.30
2019-03-12T13:09:42.701Z,17.80
2019-03-12T13:12:09.122Z,17.00
2019-03-12T13:14:41.416Z,16.60
2019-03-12T13:17:17.159Z,17.00
2019-03-12T13:19:43.682Z,16.40
2019-03-12T13:22:10.527Z,16.50
2019-03-12T13:24:36.975Z,15.50
2019-03-12T13:27:03.270Z,15.50
2019-03-12T13:29:29.621Z,15.30
2019-03-12T13:31:55.968Z,15.10
2019-03-12T13:34:22.347Z,14.20
2019-03-12T13:36:48.890Z,13.80
2019-03-12T13:39:15.426Z,14.00
2019-03-12T13:42:01.764Z,14.00
2019-03-12T13:44:28.336Z,14.20
2019-03-12T13:46:54.984Z,14.10
2019-03-12T13:49:22.520Z,14.90
2019-03-12T13:51:48.984Z,13.20
2019-03-12T13:54:15.790Z,13.10
2019-03-12T13:56:42.092Z,12.70
2019-03-12T13:59:08.694Z,13.80
2019-03-12T14:01:35.090Z,14.20
2019-03-12T14:04:10.499Z,13.90
2019-03-12T14:06:29.951Z,14.90
2019-03-12T14:08:56.378Z,14.10
2019-03-12T14:11:23.202Z,14.90
2019-03-12T14:14:09.399Z,14.20
2019-03-12T14:16:35.841Z,14.00
2019-03-12T14:19:02.236Z,13.60
2019-03-12T14:21:32.248Z,13.60
2019-03-12T14:24:00.080Z,12.20
2019-03-12T14:26:26.483Z,12.20
2019-03-12T14:28:52.966Z,12.40
2019-03-12T14:31:19.341Z,13.50
2019-03-12T14:33:45.750Z,12.60
2019-03-12T14:36:12.382Z,12.60
2019-03-12T14:38:38.662Z,12.70
2019-03-12T14:41:04.985Z,12.90
2019-03-12T14:43:31.401Z,13.40
2019-03-12T14:45:57.827Z,12.60
2019-03-12T14:48:35.947Z,11.50
2019-03-12T14:51:03.671Z,11.00
2019-03-12T14:53:30.881Z,10.10
2019-03-12T14:56:09.199Z,8.30
2019-03-12T14:58:35.597Z,7.70
2019-03-12T15:01:03.758Z,6.80
2019-03-12T15:03:30.844Z,6.70
2019-03-12T15:05:57.935Z,6.50
2019-03-12T15:08:24.393Z,7.20
2019-03-12T15:10:51.035Z,6.40
2019-03-12T15:13:17.603Z,7.00
2019-03-12T15:15:44.022Z,6.50
2019-03-12T15:18:10.566Z,5.70
2019-03-12T15:20:36.885Z,5.70
2019-03-12T15:23:03.280Z,6.00
2019-03-12T15:25:43.543Z,6.00
2019-03-12T15:28:09.981Z,5.70
2019-03-12T15:30:36.500Z,5.70
2019-03-12T15:33:02.935Z,6.00
2019-03-12T15:35:29.316Z,5.60
2019-03-12T15:37:55.789Z,5.30
2019-03-12T15:40:22.073Z,4.80
2019-03-12T15:42:48.390Z,5.60
2019-03-12T15:45:15.116Z,5.90
2019-03-12T15:47:41.605Z,5.70
2019-03-12T15:50:10.359Z,5.50
2019-03-12T15:52:36.637Z,6.30
2019-03-12T15:55:03.991Z,5.40
2019-03-12T15:57:30.453Z,5.40
2019-03-12T15:59:56.869Z,6.30
2019-03-12T16:02:24.074Z,6.00
2019-03-12T16:04:50.456Z,5.90
2019-03-12T16:07:16.846Z,5.00
2019-03-12T16:09:43.186Z,5.50
2019-03-12T16:12:20.373Z,6.20
2019-03-12T16:14:46.865Z,6.10
2019-03-12T16:17:13.275Z,6.90
2019-03-12T16:19:39.846Z,7.30
2019-03-12T16:22:06.647Z,7.30
2019-03-12T16:24:33.192Z,7.00
2019-03-12T16:27:02.834Z,7.30
2019-03-12T16:29:28.417Z,7.90
2019-03-12T16:32:14.989Z,8.90
2019-03-12T16:34:41.481Z,9.60
2019-03-12T16:37:22.390Z,10.50
2019-03-12T16:39:48.869Z,11.20
2019-03-12T16:42:15.183Z,11.90
2019-03-12T16:44:41.757Z,12.00
2019-03-12T16:47:08.249Z,12.50
2019-03-12T16:49:47.890Z,13.00
2019-03-12T16:52:14.297Z,13.40
2019-03-12T16:54:40.695Z,13.50
2019-03-12T16:57:07.033Z,14.10
2019-03-12T17:16:50.563Z,16.90
2019-03-12T17:19:18.358Z,17.50
2019-03-12T17:21:45.542Z,17.50
2019-03-12T17:24:12.507Z,18.20
2019-03-12T17:26:59.226Z,18.10
2019-03-12T17:29:26.924Z,18.30
2019-03-12T17:31:53.964Z,18.50
2019-03-12T17:34:20.949Z,18.60
2019-03-12T17:36:48.577Z,19.10
2019-03-12T17:39:17.370Z,19.70
2019-03-12T17:41:47.739Z,21.30
2019-03-12T17:44:15.658Z,21.90
2019-03-12T17:46:42.833Z,22.00
2019-03-12T17:49:12.696Z,22.60
2019-03-12T17:51:40.356Z,23.40
2019-03-12T17:54:08.280Z,23.80
2019-03-12T17:56:39.520Z,24.20
2019-03-12T17:59:06.985Z,24.50
2019-03-12T18:01:35.649Z,26.10
2019-03-12T18:04:02.639Z,25.50
2019-03-12T18:06:29.533Z,25.40
2019-03-12T18:08:56.501Z,25.30
2019-03-12T18:11:23.508Z,25.80
2019-03-12T18:13:50.492Z,25.90
2019-03-12T18:16:17.380Z,25.80
2019-03-12T18:18:44.379Z,26.00
2019-03-12T18:21:11.329Z,25.80
2019-03-12T18:23:38.321Z,26.20
2019-03-12T18:26:07.092Z,26.20
2019-03-12T18:28:34.001Z,26.40
2019-03-12T18:31:00.972Z,26.20
2019-03-12T18:33:27.894Z,26.70
2019-03-12T18:36:00.443Z,26.80
2019-03-12T18:38:47.961Z,26.90
2019-03-12T18:41:15.252Z,27.00
2019-03-12T18:43:42.435Z,26.90
2019-03-12T18:46:09.885Z,27.00
2019-03-12T18:48:37.013Z,26.60
2019-03-12T18:51:03.978Z,26.60
2019-03-12T18:53:30.853Z,26.50
2019-03-12T18:56:00.314Z,26.70
2019-03-12T18:58:27.179Z,26.70
2019-03-12T19:00:54.872Z,26.90
2019-03-12T19:06:04.987Z,27.20
2019-03-12T19:08:32.819Z,27.30
2019-03-12T19:11:01.800Z,27.40
2019-03-12T19:13:30.015Z,27.60
2019-03-12T19:15:57.154Z,27.60
2019-03-12T19:18:24.221Z,27.70
2019-03-12T19:20:51.788Z,27.40
2019-03-12T19:23:19.803Z,27.60
2019-03-12T19:25:59.593Z,28.00
2019-03-12T19:28:40.066Z,28.00
2019-03-12T19:31:17.628Z,28.00
2019-03-12T19:34:05.663Z,27.80
2019-03-12T19:36:33.868Z,27.70
2019-03-12T19:39:01.602Z,27.70
2019-03-12T19:41:32.976Z,28.10
2019-03-12T19:44:00.794Z,28.20
2019-03-12T19:46:27.743Z,28.40
2019-03-12T19:48:54.632Z,28.70
2019-03-12T19:51:21.629Z,29.00
2019-03-12T19:53:48.532Z,29.20
2019-03-12T19:56:16.120Z,28.80
2019-03-12T19:58:45.879Z,28.60
2019-03-12T20:01:13.288Z,28.80
2019-03-12T20:03:44.049Z,28.50
2019-03-12T20:06:15.376Z,28.50
2019-03-12T20:08:43.468Z,29.10
2019-03-12T20:11:32.207Z,29.20
2019-03-12T20:14:26.304Z,29.40
2019-03-12T20:17:18.682Z,29.20
2019-03-12T20:20:05.187Z,30.10
2019-03-12T20:23:09.413Z,29.70
2019-03-12T20:25:58.519Z,29.20
2019-03-12T20:29:01.330Z,29.20
2019-03-12T20:31:45.118Z,29.40
2019-03-12T20:34:25.191Z,29.50
2019-03-12T20:37:18.583Z,29.80
2019-03-12T20:40:22.670Z,29.70
2019-03-12T20:43:10.194Z,30.00
2019-03-12T20:46:13.975Z,29.80
2019-03-12T20:49:18.271Z,29.80
2019-03-12T20:52:20.893Z,29.40
2019-03-12T20:55:14.403Z,29.40
2019-03-12T20:58:07.743Z,29.50
2019-03-12T21:01:01.115Z,29.50
2019-03-12T21:03:52.734Z,29.50
2019-03-12T21:06:40.725Z,29.50
2019-03-12T21:09:44.980Z,29.50
2019-03-12T21:12:49.056Z,29.60
2019-03-12T21:15:29.044Z,29.50
2019-03-12T21:18:27.059Z,29.50
2019-03-12T21:21:31.115Z,30.00
2019-03-12T21:24:13.906Z,29.60
2019-03-12T21:27:02.617Z,29.90
2019-03-12T21:29:49.522Z,29.60
2019-03-12T21:32:17.082Z,29.80
2019-03-12T21:35:04.056Z,29.90
2019-03-12T21:37:30.687Z,30.00
2019-03-12T21:39:57.362Z,29.90
2019-03-12T21:42:25.306Z,30.00
2019-03-12T21:44:53.484Z,30.60
2019-03-12T21:47:20.025Z,30.40
2019-03-12T21:49:46.890Z,30.00
2019-03-12T21:52:13.459Z,29.40
2019-03-12T21:54:40.167Z,29.50
2019-03-12T21:57:06.599Z,29.80
2019-03-12T21:59:33.095Z,30.10
2019-03-12T22:01:59.603Z,30.70
2019-03-12T22:04:25.985Z,30.30
2019-03-12T22:06:52.420Z,30.30
2019-03-12T22:09:18.812Z,30.70
2019-03-12T22:11:45.250Z,30.60
2019-03-12T22:14:11.762Z,30.80
2019-03-12T22:16:38.187Z,30.50
2019-03-12T22:19:04.585Z,30.60
2019-03-12T22:21:39.226Z,30.70
2019-03-12T22:24:07.446Z,30.80
2019-03-12T22:26:34.196Z,30.80
2019-03-12T22:29:00.506Z,31.10
2019-03-12T22:31:26.910Z,31.30
2019-03-12T22:33:53.461Z,31.10
2019-03-12T22:36:19.866Z,31.40
2019-03-12T22:38:46.205Z,31.00
2019-03-12T22:41:25.631Z,30.70
2019-03-12T22:43:52.040Z,30.50
2019-03-12T22:46:31.749Z,30.50
2019-03-12T22:48:58.159Z,30.60
2019-03-12T22:51:24.738Z,30.90
2019-03-12T22:53:51.158Z,31.00
2019-03-12T22:56:17.430Z,31.90
2019-03-12T22:58:44.079Z,31.10
2019-03-12T23:01:29.146Z,30.70
2019-03-12T23:04:33.913Z,31.20
2019-03-12T23:07:20.044Z,31.80
2019-03-12T23:09:48.422Z,31.10
2019-03-12T23:12:17.177Z,31.20
2019-03-12T23:14:45.696Z,31.10
2019-03-12T23:17:14.002Z,31.10
2019-03-12T23:19:42.251Z,31.20
2019-03-12T23:22:09.065Z,31.40
2019-03-12T23:24:35.472Z,31.10
2019-03-12T23:27:03.302Z,30.80
2019-03-12T23:29:30.206Z,31.20
2019-03-12T23:31:56.710Z,31.70
2019-03-12T23:34:23.021Z,31.90
2019-03-12T23:36:49.350Z,31.60
2019-03-12T23:39:15.742Z,32.10
2019-03-12T23:41:42.137Z,31.70
2019-03-12T23:44:08.631Z,32.20
2019-03-12T23:46:34.948Z,32.40
2019-03-12T23:49:01.254Z,32.60
2019-03-12T23:51:27.745Z,32.00
2019-03-12T23:54:14.035Z,31.70
2019-03-12T23:56:40.459Z,32.00
2019-03-12T23:59:06.854Z,32.10
